Terminal Aerodrome Forecast
Issued by NWS

Home | Current Version | Previous Version | Text Only | Print | Product List | Glossary On
Versions: 1 2 3 4 5 6 7 8 9 10 11 12 13 14
000
FTUS45 KSLC 192320
TAFENV
TAF
KENV 192320Z 2000/2024 23012G20KT P6SM SCT100 BKN130
     FM200200 23008KT P6SM BKN130
     FM200600 32006KT P6SM FEW130
     FM201600 10007KT P6SM FEW100=

USA.gov is the U.S. government's official web portal to all federal, state and local government web resources and services.